VLVT/VTE METAR and TAF weather

Enter ICAO airport designator
Station Type Date Time Source
VLVT METAR 2019/02/20 16:30 UTC NOAA

VLVT 201630Z 27002KT 3000 BR NSC 23/22 Q1014 NOSIG


Station Type Date Time Source
VLVT Decoded METAR 2019/02/20 16:30 UTC NOAA

Vientiane, Laos (VLVT) 17-57N 102-34E 171M
Feb 20, 2019 - 11:30 AM EST / 2019.02.20 1630 UTC
Wind: from the W (270 degrees) at 2 MPH (2 KT):0
Visibility: 1 mile(s):0
Weather: mist
Temperature: 73 F (23 C)
Dew Point: 71 F (22 C)
Relative Humidity: 94%
Pressure (altimeter): 29.94 in. Hg (1014 hPa)
ob: VLVT 201630Z 27002KT 3000 BR NSC 23/22 Q1014 NOSIG
cycle: 16

Station Type Date Time Source
VLVT TAF 2019/02/20 12:39 UTC NOAA

TAF TAF VLVT 201100Z 2012/2112 34004KT 8000 FEW020 SCT050
TEMPO 2014/2020 3000 BR SCT040


Example: see airport list